createdAt,value
2017-02-22T00:00:27.407Z,0
2017-02-22T00:01:28.085Z,0
2017-02-22T00:02:28.781Z,0
2017-02-22T00:03:29.479Z,0
2017-02-22T00:04:30.176Z,0
2017-02-22T00:05:30.880Z,0
2017-02-22T00:06:31.561Z,0
2017-02-22T00:07:32.272Z,0
2017-02-22T00:08:32.982Z,0
2017-02-22T00:09:33.703Z,0
2017-02-22T00:10:34.395Z,0
2017-02-22T00:11:35.099Z,0
2017-02-22T00:12:35.766Z,0
2017-02-22T00:13:36.487Z,0
2017-02-22T00:14:37.193Z,0
2017-02-22T00:15:37.910Z,0
2017-02-22T00:16:38.602Z,0
2017-02-22T00:17:39.287Z,0
2017-02-22T00:18:39.981Z,0
2017-02-22T00:19:40.695Z,0
2017-02-22T00:20:41.406Z,0
2017-02-22T00:21:42.125Z,0
2017-02-22T00:22:42.812Z,0
2017-02-22T00:23:43.528Z,0
2017-02-22T00:24:44.250Z,0
2017-02-22T00:25:44.970Z,0
2017-02-22T00:26:45.686Z,0
2017-02-22T00:27:46.396Z,0
2017-02-22T00:28:47.113Z,0
2017-02-22T00:29:47.828Z,0
2017-02-22T00:30:48.548Z,0
2017-02-22T00:31:49.248Z,0
2017-02-22T00:32:49.947Z,0
2017-02-22T00:33:50.658Z,0
2017-02-22T00:34:51.392Z,0
2017-02-22T00:35:52.093Z,0
2017-02-22T00:36:52.837Z,0
2017-02-22T00:37:53.543Z,0
2017-02-22T00:38:54.250Z,0
2017-02-22T00:39:54.937Z,0
2017-02-22T00:40:55.654Z,0
2017-02-22T00:41:56.353Z,0
2017-02-22T00:42:57.062Z,0
2017-02-22T00:43:57.787Z,0
2017-02-22T00:44:58.483Z,0
2017-02-22T00:45:59.182Z,0
2017-02-22T00:46:59.892Z,0
2017-02-22T00:48:00.586Z,0
2017-02-22T00:49:01.302Z,0
2017-02-22T00:50:01.990Z,0
2017-02-22T00:51:02.694Z,0
2017-02-22T00:52:03.388Z,0
2017-02-22T00:53:04.086Z,0
2017-02-22T00:54:04.789Z,0
2017-02-22T00:55:05.489Z,0
2017-02-22T00:56:06.191Z,0
2017-02-22T00:57:06.894Z,0
2017-02-22T00:58:07.592Z,0
2017-02-22T00:59:08.291Z,0
2017-02-22T01:00:08.995Z,0
2017-02-22T01:01:09.693Z,0
2017-02-22T01:02:10.392Z,0
2017-02-22T01:03:11.088Z,0
2017-02-22T01:04:11.805Z,0
2017-02-22T01:05:12.486Z,0
2017-02-22T01:06:13.199Z,0
2017-02-22T01:07:13.904Z,0
2017-02-22T01:08:14.627Z,0
2017-02-22T01:09:15.321Z,0
2017-02-22T01:10:16.009Z,0
2017-02-22T01:11:16.697Z,0
2017-02-22T01:12:17.387Z,0
2017-02-22T01:13:18.087Z,0
2017-02-22T01:14:18.773Z,0
2017-02-22T01:15:19.480Z,0
2017-02-22T01:16:20.205Z,0
2017-02-22T01:17:20.917Z,0
2017-02-22T01:18:21.611Z,0
2017-02-22T01:19:22.316Z,0
2017-02-22T01:20:23.034Z,0
2017-02-22T01:21:23.718Z,0
2017-02-22T01:22:24.431Z,0
2017-02-22T01:23:25.111Z,0
2017-02-22T01:24:25.798Z,0
2017-02-22T01:25:26.496Z,0
2017-02-22T01:26:27.200Z,0
2017-02-22T01:27:27.904Z,0
2017-02-22T01:28:28.594Z,0
2017-02-22T01:29:29.298Z,0
2017-02-22T01:30:30.007Z,0
2017-02-22T01:31:30.678Z,0
2017-02-22T01:32:31.366Z,0
2017-02-22T01:33:32.037Z,0
2017-02-22T01:34:32.710Z,0
2017-02-22T01:35:33.437Z,0
2017-02-22T01:36:34.152Z,0
2017-02-22T01:37:34.866Z,0
2017-02-22T01:38:35.556Z,0
2017-02-22T01:39:36.239Z,0
2017-02-22T01:40:36.936Z,0
2017-02-22T01:41:37.615Z,0
2017-02-22T01:42:38.325Z,0
2017-02-22T01:43:39.002Z,0
2017-02-22T01:44:39.692Z,0
2017-02-22T01:45:40.411Z,0
2017-02-22T01:46:41.102Z,0
2017-02-22T01:47:41.802Z,0
2017-02-22T01:48:42.472Z,0
2017-02-22T01:49:43.145Z,0
2017-02-22T01:50:43.830Z,0
2017-02-22T01:51:44.528Z,0
2017-02-22T01:52:45.208Z,0
2017-02-22T01:53:45.938Z,0
2017-02-22T01:54:46.664Z,0
2017-02-22T01:55:47.338Z,0
2017-02-22T01:56:48.017Z,0
2017-02-22T01:57:48.737Z,0
2017-02-22T01:58:49.445Z,0
2017-02-22T01:59:50.143Z,0
2017-02-22T02:00:50.830Z,0
2017-02-22T02:01:51.525Z,0
2017-02-22T02:02:52.226Z,0
2017-02-22T02:03:52.910Z,0
2017-02-22T02:05:00.253Z,0
2017-02-22T02:06:00.964Z,0
2017-02-22T02:07:01.656Z,0
2017-02-22T02:08:02.357Z,0
2017-02-22T02:09:03.032Z,0
2017-02-22T02:10:03.717Z,0
2017-02-22T02:11:04.421Z,0
2017-02-22T02:12:05.117Z,0
2017-02-22T02:13:05.824Z,0
2017-02-22T02:14:06.515Z,0
2017-02-22T02:15:07.214Z,0
2017-02-22T02:16:07.898Z,0
2017-02-22T02:17:08.630Z,0
2017-02-22T02:18:09.337Z,0
2017-02-22T02:19:10.016Z,0
2017-02-22T02:20:10.716Z,0
2017-02-22T02:21:11.413Z,0
2017-02-22T02:22:12.126Z,0
2017-02-22T02:23:12.807Z,0
2017-02-22T02:24:13.521Z,0
2017-02-22T02:25:14.245Z,0
2017-02-22T02:26:14.924Z,0
2017-02-22T02:27:15.599Z,0
2017-02-22T02:28:16.271Z,0
2017-02-22T02:29:16.964Z,0
2017-02-22T02:30:17.698Z,0
2017-02-22T02:31:18.393Z,0
2017-02-22T02:32:19.096Z,0
2017-02-22T02:33:19.798Z,0
2017-02-22T02:34:20.545Z,0
2017-02-22T02:35:21.231Z,0
2017-02-22T02:36:21.959Z,0
2017-02-22T02:37:22.629Z,0
2017-02-22T02:38:23.368Z,0
2017-02-22T02:39:24.056Z,0
2017-02-22T02:40:24.751Z,0
2017-02-22T02:41:25.451Z,0
2017-02-22T02:42:26.138Z,0
2017-02-22T02:43:26.867Z,0
2017-02-22T02:44:27.567Z,0
2017-02-22T02:45:28.269Z,0
2017-02-22T02:46:28.979Z,0
2017-02-22T02:47:29.657Z,0
2017-02-22T02:48:30.361Z,0
2017-02-22T02:49:31.040Z,0
2017-02-22T02:50:31.748Z,0
2017-02-22T02:51:32.457Z,0
2017-02-22T02:52:33.157Z,0
2017-02-22T02:53:33.832Z,0
2017-02-22T02:54:34.516Z,0
2017-02-22T02:55:35.233Z,0
2017-02-22T02:56:35.939Z,0
2017-02-22T02:57:36.653Z,0
2017-02-22T02:58:37.347Z,0
2017-02-22T02:59:38.032Z,0
2017-02-22T03:00:38.724Z,0
2017-02-22T03:01:39.416Z,0
2017-02-22T03:02:40.108Z,0
2017-02-22T03:03:40.807Z,0
2017-02-22T03:04:41.513Z,0
2017-02-22T03:05:42.221Z,0
2017-02-22T03:06:42.949Z,0
2017-02-22T03:07:43.646Z,0
2017-02-22T03:08:44.353Z,0
2017-02-22T03:09:45.062Z,0
2017-02-22T03:10:45.742Z,0
2017-02-22T03:11:46.470Z,0
2017-02-22T03:12:47.173Z,0
2017-02-22T03:13:47.878Z,0
2017-02-22T03:14:48.570Z,0
2017-02-22T03:15:49.270Z,0
2017-02-22T03:16:49.958Z,0
2017-02-22T03:17:50.656Z,0
2017-02-22T03:18:51.359Z,0
2017-02-22T03:19:52.074Z,0
2017-02-22T03:20:52.749Z,0
2017-02-22T03:21:53.433Z,0
2017-02-22T03:22:54.125Z,0
2017-02-22T03:23:54.817Z,0
2017-02-22T03:24:55.512Z,0
2017-02-22T03:25:56.205Z,0
2017-02-22T03:26:56.912Z,0
2017-02-22T03:27:57.635Z,0
2017-02-22T03:28:58.328Z,0
2017-02-22T03:29:59.042Z,0
2017-02-22T03:30:59.735Z,0
2017-02-22T03:32:00.428Z,0
2017-02-22T03:33:01.131Z,0
2017-02-22T03:34:01.836Z,0
2017-02-22T03:35:02.532Z,0
2017-02-22T03:36:03.236Z,0
2017-02-22T03:37:03.921Z,0
2017-02-22T03:38:04.616Z,0
2017-02-22T03:39:05.348Z,0
2017-02-22T03:40:06.051Z,0
2017-02-22T03:41:06.745Z,0
2017-02-22T03:42:07.454Z,0
2017-02-22T03:43:08.136Z,0
2017-02-22T03:44:08.840Z,0
2017-02-22T03:45:09.546Z,0
2017-02-22T03:46:10.237Z,0
2017-02-22T03:47:10.945Z,0
2017-02-22T03:48:11.619Z,0
2017-02-22T03:49:12.288Z,0
2017-02-22T03:50:12.990Z,0
2017-02-22T03:51:13.681Z,0
2017-02-22T03:52:14.379Z,0
2017-02-22T03:53:15.059Z,0
2017-02-22T03:54:15.776Z,0
2017-02-22T03:55:16.462Z,0
2017-02-22T03:56:17.153Z,0
2017-02-22T03:57:17.849Z,0
2017-02-22T03:58:18.544Z,0
2017-02-22T03:59:19.229Z,0
2017-02-22T04:00:19.937Z,0
2017-02-22T04:01:20.611Z,0
2017-02-22T04:02:21.307Z,0
2017-02-22T04:03:21.982Z,0
2017-02-22T04:04:22.699Z,0
2017-02-22T04:05:23.395Z,0
2017-02-22T04:06:24.103Z,0
2017-02-22T04:07:24.812Z,0
2017-02-22T04:08:25.485Z,0
2017-02-22T04:09:26.204Z,0
2017-02-22T04:10:26.925Z,0
2017-02-22T04:11:27.605Z,0
2017-02-22T04:12:28.296Z,0
2017-02-22T04:13:29.001Z,0
2017-02-22T04:14:29.682Z,0
2017-02-22T04:15:30.393Z,0
2017-02-22T04:16:31.061Z,0
2017-02-22T04:17:31.740Z,0
2017-02-22T04:18:32.461Z,0
2017-02-22T04:19:33.140Z,0
2017-02-22T04:20:33.814Z,0
2017-02-22T04:21:34.521Z,0
2017-02-22T04:22:35.213Z,0
2017-02-22T04:23:35.887Z,0
2017-02-22T04:24:36.591Z,0
2017-02-22T04:25:37.285Z,0
2017-02-22T04:26:38.002Z,0
2017-02-22T04:27:38.713Z,0
2017-02-22T04:28:39.434Z,0
2017-02-22T04:29:40.124Z,0
2017-02-22T04:30:40.879Z,0
2017-02-22T04:31:41.582Z,0
2017-02-22T04:32:42.277Z,0
2017-02-22T04:33:42.944Z,0
2017-02-22T04:34:43.623Z,0
2017-02-22T04:35:44.329Z,0
2017-02-22T04:36:45.025Z,0
2017-02-22T04:37:45.734Z,0
2017-02-22T04:38:46.425Z,0
2017-02-22T04:39:47.103Z,0
2017-02-22T04:40:47.804Z,0
2017-02-22T04:41:48.476Z,0
2017-02-22T04:42:49.165Z,0
2017-02-22T04:43:49.867Z,0
2017-02-22T04:44:50.548Z,0
2017-02-22T04:45:51.239Z,0
2017-02-22T04:46:51.919Z,0
2017-02-22T04:47:52.640Z,0
2017-02-22T04:48:53.304Z,0
2017-02-22T04:49:54.015Z,0
2017-02-22T04:50:54.701Z,0
2017-02-22T04:51:55.415Z,0
2017-02-22T04:52:56.093Z,0
2017-02-22T04:53:56.829Z,0
2017-02-22T04:54:58.050Z,0
2017-02-22T04:55:58.773Z,0
2017-02-22T04:56:59.484Z,0
2017-02-22T04:58:02.006Z,0
2017-02-22T04:59:02.699Z,0
2017-02-22T05:00:03.401Z,0
2017-02-22T05:01:04.079Z,0
2017-02-22T05:02:04.801Z,0
2017-02-22T05:03:05.516Z,0
2017-02-22T05:04:06.201Z,0
2017-02-22T05:05:06.923Z,0
2017-02-22T05:06:07.634Z,0
2017-02-22T05:07:08.513Z,0
2017-02-22T05:08:10.045Z,0
2017-02-22T05:09:10.736Z,0
2017-02-22T05:10:12.756Z,0
2017-02-22T05:11:13.462Z,0
2017-02-22T05:12:14.166Z,0
2017-02-22T05:13:14.855Z,0
2017-02-22T05:14:15.530Z,0
2017-02-22T05:15:16.219Z,0
2017-02-22T05:16:16.942Z,0
2017-02-22T05:17:17.645Z,0
2017-02-22T05:18:18.369Z,0
2017-02-22T05:19:19.094Z,0
2017-02-22T05:20:21.770Z,0
2017-02-22T05:21:22.484Z,0
2017-02-22T05:22:23.198Z,0
2017-02-22T05:23:23.883Z,0
2017-02-22T05:24:24.602Z,0
2017-02-22T05:25:25.332Z,0
2017-02-22T05:26:26.010Z,0
2017-02-22T05:27:26.713Z,0
2017-02-22T05:28:27.406Z,0
2017-02-22T05:29:28.114Z,0
2017-02-22T05:30:28.863Z,0
2017-02-22T05:31:31.167Z,0
2017-02-22T05:32:31.875Z,0
2017-02-22T05:33:32.596Z,0
2017-02-22T05:34:33.313Z,0
2017-02-22T05:35:35.248Z,0
2017-02-22T05:36:36.913Z,0
2017-02-22T05:37:37.604Z,0
2017-02-22T05:38:38.321Z,0
2017-02-22T05:39:39.040Z,0
2017-02-22T05:40:39.727Z,0
2017-02-22T05:41:40.446Z,0
2017-02-22T05:42:41.160Z,0
2017-02-22T05:43:41.853Z,0
2017-02-22T05:44:42.614Z,0
2017-02-22T05:45:43.343Z,0
2017-02-22T05:46:44.053Z,0
2017-02-22T05:47:44.785Z,0
2017-02-22T05:48:45.591Z,0
2017-02-22T05:49:46.739Z,0
2017-02-22T05:50:47.436Z,0
2017-02-22T05:51:48.141Z,0
2017-02-22T05:52:48.859Z,0
2017-02-22T05:53:49.557Z,0
2017-02-22T05:54:50.249Z,0
2017-02-22T05:55:50.929Z,0
2017-02-22T05:56:51.642Z,0
2017-02-22T05:57:52.339Z,0
2017-02-22T05:58:53.082Z,0
2017-02-22T05:59:53.785Z,0
2017-02-22T06:00:54.492Z,0
2017-02-22T06:01:55.222Z,0
2017-02-22T06:02:55.951Z,0
2017-02-22T06:03:56.668Z,0
2017-02-22T06:04:57.357Z,0
2017-02-22T06:05:58.067Z,0
2017-02-22T06:06:58.761Z,0
2017-02-22T06:07:59.502Z,0
2017-02-22T06:09:00.196Z,0
2017-02-22T06:10:00.894Z,0
2017-02-22T06:11:01.605Z,0
2017-02-22T06:12:02.299Z,0
2017-02-22T06:13:02.987Z,0
2017-02-22T06:14:03.710Z,0
2017-02-22T06:15:04.423Z,0
2017-02-22T06:16:05.129Z,0
2017-02-22T06:17:05.928Z,0
2017-02-22T06:18:06.748Z,0
2017-02-22T06:19:07.834Z,0
2017-02-22T06:20:08.810Z,0
2017-02-22T06:21:09.492Z,0
2017-02-22T06:22:10.175Z,0
2017-02-22T06:23:10.874Z,0
2017-02-22T06:24:11.558Z,0
2017-02-22T06:25:12.298Z,0
2017-02-22T06:26:12.999Z,0
2017-02-22T06:27:13.705Z,0
2017-02-22T06:28:14.400Z,0
2017-02-22T06:29:15.095Z,0
2017-02-22T06:30:15.795Z,0
2017-02-22T06:31:16.502Z,0
2017-02-22T06:32:17.191Z,0
2017-02-22T06:33:17.908Z,0
2017-02-22T06:34:18.609Z,0
2017-02-22T06:35:19.303Z,0
2017-02-22T06:36:20.008Z,0
2017-02-22T06:37:20.709Z,0
2017-02-22T06:38:21.418Z,0
2017-02-22T06:39:22.125Z,0
2017-02-22T06:40:22.841Z,0
2017-02-22T06:41:23.533Z,0
2017-02-22T06:42:24.239Z,0
2017-02-22T06:43:24.944Z,0
2017-02-22T06:44:25.654Z,0
2017-02-22T06:45:26.369Z,5
2017-02-22T06:46:27.049Z,5
2017-02-22T06:47:27.724Z,0
2017-02-22T06:48:28.418Z,5
2017-02-22T06:49:29.114Z,5
2017-02-22T06:50:29.823Z,5
2017-02-22T06:51:30.512Z,5
2017-02-22T06:52:31.237Z,5
2017-02-22T06:53:32.016Z,5
2017-02-22T06:54:32.728Z,5
2017-02-22T06:55:33.421Z,5
2017-02-22T06:56:34.132Z,5
2017-02-22T06:57:34.840Z,10
2017-02-22T06:58:35.540Z,5
2017-02-22T06:59:36.253Z,5
2017-02-22T07:00:37.008Z,5
2017-02-22T07:01:37.714Z,5
2017-02-22T07:02:38.416Z,5
2017-02-22T07:03:39.135Z,10
2017-02-22T07:04:39.824Z,10
2017-02-22T07:05:40.563Z,10
2017-02-22T07:06:41.275Z,15
2017-02-22T07:07:42.060Z,10
2017-02-22T07:08:42.757Z,10
2017-02-22T07:09:43.514Z,15
2017-02-22T07:10:44.213Z,10
2017-02-22T07:11:44.933Z,15
2017-02-22T07:12:45.662Z,20
2017-02-22T07:13:46.373Z,15
2017-02-22T07:14:47.111Z,20
2017-02-22T07:15:47.856Z,20
2017-02-22T07:16:48.556Z,20
2017-02-22T07:17:49.268Z,25
2017-02-22T07:18:49.991Z,20
2017-02-22T07:19:50.703Z,15
2017-02-22T07:20:51.502Z,15
2017-02-22T07:21:52.223Z,20
2017-02-22T07:22:52.962Z,15
2017-02-22T07:23:53.688Z,15
2017-02-22T07:24:54.398Z,15
2017-02-22T07:25:55.123Z,20
2017-02-22T07:26:55.851Z,20
2017-02-22T07:27:56.555Z,20
2017-02-22T07:28:57.269Z,20
2017-02-22T07:29:58.031Z,25
2017-02-22T07:30:58.786Z,20
2017-02-22T07:31:59.489Z,20
2017-02-22T07:33:00.166Z,20
2017-02-22T07:34:00.913Z,30
2017-02-22T07:35:01.619Z,35
2017-02-22T07:36:02.310Z,30
2017-02-22T07:37:03.036Z,35
2017-02-22T07:38:03.768Z,40
2017-02-22T07:39:04.475Z,35
2017-02-22T07:40:05.229Z,40
2017-02-22T07:41:05.937Z,40
2017-02-22T07:42:06.837Z,35
2017-02-22T07:43:07.596Z,40
2017-02-22T07:44:08.286Z,30
2017-02-22T07:45:09.005Z,30
2017-02-22T07:46:09.708Z,30
2017-02-22T07:47:10.442Z,35
2017-02-22T07:48:11.165Z,40
2017-02-22T07:49:11.846Z,35
2017-02-22T07:50:12.565Z,30
2017-02-22T07:51:13.293Z,25
2017-02-22T07:52:14.023Z,30
2017-02-22T07:53:14.807Z,30
2017-02-22T07:54:15.534Z,30
2017-02-22T07:55:16.246Z,35
2017-02-22T07:56:16.985Z,35
2017-02-22T07:57:17.695Z,30
2017-02-22T07:58:18.411Z,35
2017-02-22T07:59:19.131Z,30
2017-02-22T08:00:19.870Z,25
2017-02-22T08:01:20.580Z,40
2017-02-22T08:02:21.289Z,40
2017-02-22T08:03:21.990Z,45
2017-02-22T08:04:22.732Z,55
2017-02-22T08:05:23.426Z,70
2017-02-22T08:06:24.127Z,85
2017-02-22T08:07:24.827Z,95
2017-02-22T08:08:25.544Z,100
2017-02-22T08:09:26.323Z,130
2017-02-22T08:10:27.020Z,105
2017-02-22T08:11:27.732Z,85
2017-02-22T08:12:28.436Z,60
2017-02-22T08:13:29.146Z,80
2017-02-22T08:14:29.845Z,80
2017-02-22T08:15:30.551Z,75
2017-02-22T08:16:31.238Z,90
2017-02-22T08:17:31.954Z,75
2017-02-22T08:18:32.675Z,60
2017-02-22T08:19:33.391Z,65
2017-02-22T08:20:34.114Z,55
2017-02-22T08:21:34.812Z,60
2017-02-22T08:22:35.510Z,85
2017-02-22T08:23:36.220Z,70
2017-02-22T08:24:36.941Z,80
2017-02-22T08:25:37.640Z,95
2017-02-22T08:26:38.360Z,105
2017-02-22T08:27:39.071Z,80
2017-02-22T08:28:39.752Z,85
2017-02-22T08:29:40.531Z,95
2017-02-22T08:30:41.272Z,90
2017-02-22T08:31:42.036Z,95
2017-02-22T08:32:42.755Z,95
2017-02-22T08:33:43.537Z,95
2017-02-22T08:34:44.257Z,95
2017-02-22T08:35:45.009Z,90
2017-02-22T08:36:45.728Z,105
2017-02-22T08:37:46.419Z,105
2017-02-22T08:38:47.139Z,110
2017-02-22T08:39:47.836Z,115
2017-02-22T08:40:48.603Z,115
2017-02-22T08:41:49.320Z,100
2017-02-22T08:42:50.044Z,90
2017-02-22T08:43:50.748Z,95
2017-02-22T08:44:51.437Z,95
2017-02-22T08:45:52.148Z,100
2017-02-22T08:46:52.863Z,105
2017-02-22T08:47:53.546Z,110
2017-02-22T08:48:54.235Z,110
2017-02-22T08:49:54.998Z,110
2017-02-22T08:50:55.860Z,115
2017-02-22T08:51:56.595Z,110
2017-02-22T08:52:57.325Z,100
2017-02-22T08:53:58.042Z,95
2017-02-22T08:54:58.849Z,80
2017-02-22T08:55:59.748Z,65
2017-02-22T08:57:00.593Z,55
2017-02-22T08:58:01.433Z,60
2017-02-22T08:59:02.183Z,80
2017-02-22T09:00:02.952Z,100
2017-02-22T09:01:03.743Z,115
2017-02-22T09:02:04.549Z,130
2017-02-22T09:03:05.282Z,135
2017-02-22T09:04:06.011Z,125
2017-02-22T09:05:06.726Z,125
2017-02-22T09:06:07.432Z,155
2017-02-22T09:07:08.194Z,205
2017-02-22T09:08:08.948Z,165
2017-02-22T09:09:09.611Z,135
2017-02-22T09:10:10.301Z,120
2017-02-22T09:11:11.044Z,150
2017-02-22T09:12:11.825Z,195
2017-02-22T09:13:12.555Z,215
2017-02-22T09:14:13.275Z,245
2017-02-22T09:15:13.984Z,255
2017-02-22T09:16:14.671Z,235
2017-02-22T09:17:15.384Z,185
2017-02-22T09:18:16.077Z,190
2017-02-22T09:19:16.799Z,200
2017-02-22T09:20:17.519Z,200
2017-02-22T09:21:18.225Z,195
2017-02-22T09:22:18.931Z,190
2017-02-22T09:23:19.641Z,195
2017-02-22T09:24:20.343Z,205
2017-02-22T09:25:21.074Z,205
2017-02-22T09:26:21.776Z,215
2017-02-22T09:27:22.485Z,205
2017-02-22T09:28:23.195Z,215
2017-02-22T09:29:23.929Z,200
2017-02-22T09:30:24.633Z,210
2017-02-22T09:31:25.323Z,250
2017-02-22T09:32:26.027Z,225
2017-02-22T09:33:26.830Z,210
2017-02-22T09:34:27.542Z,190
2017-02-22T09:35:28.235Z,215
2017-02-22T09:36:28.944Z,225
2017-02-22T09:37:29.652Z,195
2017-02-22T09:38:30.397Z,175
2017-02-22T09:39:31.109Z,165
2017-02-22T09:40:31.803Z,160
2017-02-22T09:41:32.541Z,165
2017-02-22T09:42:33.261Z,180
2017-02-22T09:43:33.964Z,200
2017-02-22T09:44:34.701Z,185
2017-02-22T09:45:35.419Z,160
2017-02-22T09:46:36.115Z,150
2017-02-22T09:47:36.813Z,165
2017-02-22T09:48:37.513Z,180
2017-02-22T09:49:38.232Z,185
2017-02-22T09:50:38.971Z,170
2017-02-22T09:51:39.671Z,140
2017-02-22T09:52:40.365Z,145
2017-02-22T09:53:41.059Z,150
2017-02-22T09:54:41.772Z,150
2017-02-22T09:55:42.539Z,170
2017-02-22T09:56:43.268Z,180
2017-02-22T09:57:43.955Z,215
2017-02-22T09:58:44.678Z,260
2017-02-22T09:59:45.386Z,305
2017-02-22T10:00:46.108Z,325
2017-02-22T10:01:46.828Z,320
2017-02-22T10:02:47.514Z,320
2017-02-22T10:03:48.254Z,330
2017-02-22T10:04:48.972Z,305
2017-02-22T10:05:49.685Z,290
2017-02-22T10:06:50.402Z,275
2017-02-22T10:07:51.096Z,255
2017-02-22T10:08:51.803Z,210
2017-02-22T10:09:52.522Z,170
2017-02-22T10:10:53.237Z,105
2017-02-22T10:11:53.935Z,85
2017-02-22T10:12:54.656Z,100
2017-02-22T10:13:55.360Z,110
2017-02-22T10:14:56.058Z,110
2017-02-22T10:15:56.898Z,95
2017-02-22T10:16:57.595Z,105
2017-02-22T10:17:58.334Z,90
2017-02-22T10:18:59.049Z,110
2017-02-22T10:19:59.755Z,95
2017-02-22T10:21:00.467Z,105
2017-02-22T10:22:01.193Z,95
2017-02-22T10:23:01.897Z,105
2017-02-22T10:24:02.598Z,95
2017-02-22T10:25:03.358Z,110
2017-02-22T10:26:04.097Z,85
2017-02-22T10:27:04.822Z,95
2017-02-22T10:28:05.590Z,105
2017-02-22T10:29:06.370Z,95
2017-02-22T10:30:07.098Z,85
2017-02-22T10:31:07.832Z,85
2017-02-22T10:32:08.546Z,90
2017-02-22T10:33:09.310Z,85
2017-02-22T10:34:10.080Z,90
2017-02-22T10:35:10.777Z,100
2017-02-22T10:36:11.482Z,90
2017-02-22T10:37:12.210Z,160
2017-02-22T10:38:12.931Z,260
2017-02-22T10:39:13.679Z,230
2017-02-22T10:40:14.440Z,185
2017-02-22T10:41:15.162Z,205
2017-02-22T10:42:15.850Z,260
2017-02-22T10:43:16.599Z,290
2017-02-22T10:44:17.389Z,395
2017-02-22T10:45:18.247Z,465
2017-02-22T10:46:18.974Z,475
2017-02-22T10:47:19.719Z,445
2017-02-22T10:48:20.453Z,450
2017-02-22T10:49:21.191Z,475
2017-02-22T10:50:21.921Z,430
2017-02-22T10:51:22.641Z,450
2017-02-22T10:52:23.418Z,480
2017-02-22T10:53:24.154Z,485
2017-02-22T10:54:24.858Z,460
2017-02-22T10:55:25.563Z,400
2017-02-22T10:56:26.264Z,395
2017-02-22T10:57:26.990Z,385
2017-02-22T10:58:27.730Z,410
2017-02-22T10:59:28.429Z,455
2017-02-22T11:00:29.165Z,475
2017-02-22T11:01:29.894Z,470
2017-02-22T11:02:30.590Z,480
2017-02-22T11:03:31.405Z,475
2017-02-22T11:04:32.107Z,435
2017-02-22T11:05:32.812Z,445
2017-02-22T11:06:33.642Z,470
2017-02-22T11:07:34.438Z,485
2017-02-22T11:08:35.130Z,490
2017-02-22T11:09:35.893Z,495
2017-02-22T11:10:36.658Z,495
2017-02-22T11:11:37.389Z,495
2017-02-22T11:12:38.217Z,510
2017-02-22T11:13:38.957Z,520
2017-02-22T11:14:39.749Z,495
2017-02-22T11:15:40.440Z,470
2017-02-22T11:16:41.226Z,490
2017-02-22T11:17:42.139Z,490
2017-02-22T11:18:42.796Z,435
2017-02-22T11:19:43.517Z,475
2017-02-22T11:20:44.231Z,510
2017-02-22T11:21:45.018Z,490
2017-02-22T11:22:45.707Z,440
2017-02-22T11:23:46.432Z,450
2017-02-22T11:24:47.186Z,460
2017-02-22T11:25:47.916Z,490
2017-02-22T11:26:48.603Z,510
2017-02-22T11:27:49.316Z,520
2017-02-22T11:28:50.041Z,500
2017-02-22T11:29:50.730Z,470
2017-02-22T11:30:51.451Z,440
2017-02-22T11:31:52.172Z,480
2017-02-22T11:32:52.873Z,485
2017-02-22T11:33:53.571Z,500
2017-02-22T11:34:54.294Z,490
2017-02-22T11:35:55.015Z,465
2017-02-22T11:36:55.698Z,475
2017-02-22T11:37:56.412Z,440
2017-02-22T11:38:57.137Z,345
2017-02-22T11:39:57.871Z,345
2017-02-22T11:40:58.666Z,455
2017-02-22T11:41:59.459Z,485
2017-02-22T11:43:00.251Z,430
2017-02-22T11:44:01.026Z,335
2017-02-22T11:45:01.808Z,330
2017-02-22T11:46:02.605Z,405
2017-02-22T11:47:03.451Z,375
2017-02-22T11:48:04.428Z,420
2017-02-22T11:49:05.285Z,400
2017-02-22T11:50:06.118Z,400
2017-02-22T11:51:06.881Z,380
2017-02-22T11:52:07.577Z,355
2017-02-22T11:53:08.286Z,395
2017-02-22T11:54:09.001Z,405
2017-02-22T11:55:09.730Z,420
2017-02-22T11:56:10.456Z,425
2017-02-22T11:57:11.144Z,415
2017-02-22T11:58:11.913Z,415
2017-02-22T11:59:12.680Z,400
2017-02-22T12:00:13.383Z,410
2017-02-22T12:01:14.080Z,365
2017-02-22T12:02:14.794Z,385
2017-02-22T12:03:15.512Z,400
2017-02-22T12:04:16.216Z,405
2017-02-22T12:05:16.938Z,390
2017-02-22T12:06:17.655Z,395
2017-02-22T12:07:18.376Z,390
2017-02-22T12:08:19.093Z,395
2017-02-22T12:09:19.804Z,385
2017-02-22T12:10:20.494Z,365
2017-02-22T12:11:21.199Z,370
2017-02-22T12:12:21.895Z,385
2017-02-22T12:13:22.629Z,370
2017-02-22T12:14:23.325Z,375
2017-02-22T12:15:24.043Z,375
2017-02-22T12:16:24.850Z,370
2017-02-22T12:17:25.584Z,370
2017-02-22T12:18:26.339Z,365
2017-02-22T12:19:27.098Z,350
2017-02-22T12:20:27.833Z,350
2017-02-22T12:21:28.560Z,355
2017-02-22T12:22:29.289Z,355
2017-02-22T12:23:30.032Z,355
2017-02-22T12:24:30.726Z,345
2017-02-22T12:25:31.462Z,345
2017-02-22T12:26:32.175Z,360
2017-02-22T12:27:32.890Z,370
2017-02-22T12:28:33.580Z,370
2017-02-22T12:29:34.268Z,370
2017-02-22T12:30:34.979Z,355
2017-02-22T12:31:35.677Z,365
2017-02-22T12:32:36.368Z,365
2017-02-22T12:33:37.061Z,335
2017-02-22T12:34:37.806Z,310
2017-02-22T12:35:38.493Z,335
2017-02-22T12:36:39.203Z,335
2017-02-22T12:37:39.916Z,315
2017-02-22T12:38:40.622Z,300
2017-02-22T12:39:41.315Z,320
2017-02-22T12:40:42.007Z,320
2017-02-22T12:41:42.708Z,300
2017-02-22T12:42:43.421Z,285
2017-02-22T12:43:44.122Z,255
2017-02-22T12:44:44.859Z,280
2017-02-22T12:45:45.575Z,270
2017-02-22T12:46:46.280Z,265
2017-02-22T12:47:46.986Z,260
2017-02-22T12:48:47.662Z,260
2017-02-22T12:49:48.357Z,265
2017-02-22T12:50:49.064Z,265
2017-02-22T12:51:49.802Z,260
2017-02-22T12:52:50.529Z,255
2017-02-22T12:53:51.247Z,255
2017-02-22T12:54:51.983Z,255
2017-02-22T12:55:52.757Z,260
2017-02-22T12:56:53.454Z,260
2017-02-22T12:57:54.165Z,265
2017-02-22T12:58:54.872Z,275
2017-02-22T12:59:55.639Z,275
2017-02-22T13:00:56.327Z,275
2017-02-22T13:01:57.024Z,275
2017-02-22T13:02:57.740Z,270
2017-02-22T13:03:58.439Z,260
2017-02-22T13:04:59.155Z,265
2017-02-22T13:05:59.848Z,260
2017-02-22T13:07:00.552Z,250
2017-02-22T13:08:01.286Z,245
2017-02-22T13:09:01.988Z,250
2017-02-22T13:10:02.686Z,250
2017-02-22T13:11:03.414Z,255
2017-02-22T13:12:04.119Z,250
2017-02-22T13:13:04.815Z,250
2017-02-22T13:14:05.517Z,245
2017-02-22T13:15:06.202Z,240
2017-02-22T13:16:06.906Z,240
2017-02-22T13:17:07.602Z,235
2017-02-22T13:18:08.299Z,230
2017-02-22T13:19:09.021Z,225
2017-02-22T13:20:09.704Z,215
2017-02-22T13:21:10.448Z,215
2017-02-22T13:22:11.140Z,215
2017-02-22T13:23:11.852Z,215
2017-02-22T13:24:12.548Z,220
2017-02-22T13:25:13.264Z,225
2017-02-22T13:26:13.965Z,230
2017-02-22T13:27:14.664Z,230
2017-02-22T13:28:15.357Z,230
2017-02-22T13:29:16.055Z,240
2017-02-22T13:30:16.772Z,245
2017-02-22T13:31:17.500Z,250
2017-02-22T13:32:18.203Z,260
2017-02-22T13:33:18.913Z,260
2017-02-22T13:34:19.755Z,265
2017-02-22T13:35:20.471Z,270
2017-02-22T13:36:21.224Z,265
2017-02-22T13:37:21.950Z,265
2017-02-22T13:38:22.694Z,255
2017-02-22T13:39:23.381Z,220
2017-02-22T13:40:24.108Z,215
2017-02-22T13:41:24.848Z,220
2017-02-22T13:42:25.569Z,235
2017-02-22T13:43:26.270Z,235
2017-02-22T13:44:26.982Z,245
2017-02-22T13:45:27.719Z,230
2017-02-22T13:46:28.450Z,230
2017-02-22T13:47:29.131Z,230
2017-02-22T13:48:29.828Z,240
2017-02-22T13:49:30.526Z,240
2017-02-22T13:50:31.239Z,240
2017-02-22T13:51:32.042Z,235
2017-02-22T13:52:32.730Z,230
2017-02-22T13:53:33.447Z,235
2017-02-22T13:54:34.165Z,230
2017-02-22T13:55:34.882Z,235
2017-02-22T13:56:35.584Z,235
2017-02-22T13:57:36.293Z,230
2017-02-22T13:58:37.018Z,225
2017-02-22T13:59:37.723Z,215
2017-02-22T14:00:38.432Z,205
2017-02-22T14:01:39.124Z,205
2017-02-22T14:02:39.847Z,200
2017-02-22T14:03:40.553Z,190
2017-02-22T14:04:41.253Z,180
2017-02-22T14:05:41.979Z,175
2017-02-22T14:06:42.697Z,175
2017-02-22T14:07:43.592Z,175
2017-02-22T14:08:44.271Z,170
2017-02-22T14:09:44.969Z,165
2017-02-22T14:10:45.676Z,155
2017-02-22T14:11:46.375Z,150
2017-02-22T14:12:47.080Z,145
2017-02-22T14:13:47.800Z,145
2017-02-22T14:14:48.512Z,150
2017-02-22T14:15:49.208Z,145
2017-02-22T14:16:49.914Z,140
2017-02-22T14:17:50.644Z,130
2017-02-22T14:18:51.357Z,125
2017-02-22T14:19:52.068Z,120
2017-02-22T14:20:52.802Z,115
2017-02-22T14:21:53.521Z,110
2017-02-22T14:22:54.230Z,110
2017-02-22T14:23:54.951Z,105
2017-02-22T14:24:55.665Z,110
2017-02-22T14:25:56.407Z,110
2017-02-22T14:26:57.073Z,110
2017-02-22T14:27:57.783Z,110
2017-02-22T14:28:58.493Z,110